sensor_id;sensor_type;location;lat;lon;timestamp;P1;durP1;ratioP1;P2;durP2;ratioP2
33287;SDS011;19657;50.452;30.372;2023-12-29T00:00:19;19.20;;;10.60;;
33287;SDS011;19657;50.452;30.372;2023-12-29T00:03:05;20.30;;;11.50;;
33287;SDS011;19657;50.452;30.372;2023-12-29T00:05:50;21.10;;;10.60;;
33287;SDS011;19657;50.452;30.372;2023-12-29T00:08:36;22.20;;;11.90;;
33287;SDS011;19657;50.452;30.372;2023-12-29T00:11:22;18.10;;;11.20;;
33287;SDS011;19657;50.452;30.372;2023-12-29T00:14:08;19.40;;;10.50;;
33287;SDS011;19657;50.452;30.372;2023-12-29T00:16:54;20.20;;;11.40;;
33287;SDS011;19657;50.452;30.372;2023-12-29T00:19:42;21.10;;;11.40;;
33287;SDS011;19657;50.452;30.372;2023-12-29T00:22:29;21.70;;;11.60;;
33287;SDS011;19657;50.452;30.372;2023-12-29T00:25:14;23.30;;;12.60;;
33287;SDS011;19657;50.452;30.372;2023-12-29T00:27:59;23.90;;;13.40;;
33287;SDS011;19657;50.452;30.372;2023-12-29T00:30:45;24.70;;;13.50;;
33287;SDS011;19657;50.452;30.372;2023-12-29T00:33:46;26.30;;;12.60;;
33287;SDS011;19657;50.452;30.372;2023-12-29T00:36:32;24.20;;;11.90;;
33287;SDS011;19657;50.452;30.372;2023-12-29T00:39:18;20.60;;;11.60;;
33287;SDS011;19657;50.452;30.372;2023-12-29T00:42:04;21.90;;;12.10;;
33287;SDS011;19657;50.452;30.372;2023-12-29T00:44:51;22.30;;;12.50;;
33287;SDS011;19657;50.452;30.372;2023-12-29T00:47:37;25.80;;;12.30;;
33287;SDS011;19657;50.452;30.372;2023-12-29T00:50:22;25.20;;;13.10;;
33287;SDS011;19657;50.452;30.372;2023-12-29T00:53:08;24.10;;;12.60;;
33287;SDS011;19657;50.452;30.372;2023-12-29T00:55:55;27.40;;;14.10;;
33287;SDS011;19657;50.452;30.372;2023-12-29T00:58:40;21.10;;;11.80;;
33287;SDS011;19657;50.452;30.372;2023-12-29T01:01:26;23.50;;;12.50;;
33287;SDS011;19657;50.452;30.372;2023-12-29T01:04:12;23.00;;;12.10;;
33287;SDS011;19657;50.452;30.372;2023-12-29T01:06:58;23.70;;;12.70;;
33287;SDS011;19657;50.452;30.372;2023-12-29T01:09:43;20.60;;;12.50;;
33287;SDS011;19657;50.452;30.372;2023-12-29T01:12:29;23.40;;;12.40;;
33287;SDS011;19657;50.452;30.372;2023-12-29T01:15:15;24.20;;;12.50;;
33287;SDS011;19657;50.452;30.372;2023-12-29T01:18:01;24.10;;;12.70;;
33287;SDS011;19657;50.452;30.372;2023-12-29T01:20:47;24.50;;;12.50;;
33287;SDS011;19657;50.452;30.372;2023-12-29T01:23:32;23.90;;;13.40;;
33287;SDS011;19657;50.452;30.372;2023-12-29T01:26:18;26.00;;;13.90;;
33287;SDS011;19657;50.452;30.372;2023-12-29T01:29:04;22.40;;;13.20;;
33287;SDS011;19657;50.452;30.372;2023-12-29T01:31:51;23.20;;;13.80;;
33287;SDS011;19657;50.452;30.372;2023-12-29T01:34:37;23.00;;;12.80;;
33287;SDS011;19657;50.452;30.372;2023-12-29T01:37:23;25.20;;;12.30;;
33287;SDS011;19657;50.452;30.372;2023-12-29T01:40:09;19.70;;;12.00;;
33287;SDS011;19657;50.452;30.372;2023-12-29T01:42:55;20.10;;;12.20;;
33287;SDS011;19657;50.452;30.372;2023-12-29T01:45:41;18.90;;;11.60;;
33287;SDS011;19657;50.452;30.372;2023-12-29T01:48:40;20.80;;;12.10;;
33287;SDS011;19657;50.452;30.372;2023-12-29T01:51:26;23.50;;;13.80;;
33287;SDS011;19657;50.452;30.372;2023-12-29T01:54:12;23.30;;;13.40;;
33287;SDS011;19657;50.452;30.372;2023-12-29T01:56:59;20.30;;;12.30;;
33287;SDS011;19657;50.452;30.372;2023-12-29T01:59:47;25.40;;;13.40;;
33287;SDS011;19657;50.452;30.372;2023-12-29T02:02:34;23.20;;;12.10;;
33287;SDS011;19657;50.452;30.372;2023-12-29T02:05:20;22.70;;;13.00;;
33287;SDS011;19657;50.452;30.372;2023-12-29T02:08:10;20.00;;;12.30;;
33287;SDS011;19657;50.452;30.372;2023-12-29T02:10:56;21.30;;;12.20;;
33287;SDS011;19657;50.452;30.372;2023-12-29T02:13:42;23.80;;;12.50;;
33287;SDS011;19657;50.452;30.372;2023-12-29T02:22:31;24.00;;;13.30;;
33287;SDS011;19657;50.452;30.372;2023-12-29T02:25:16;22.50;;;12.60;;
33287;SDS011;19657;50.452;30.372;2023-12-29T02:28:04;20.40;;;13.00;;
33287;SDS011;19657;50.452;30.372;2023-12-29T02:34:04;22.40;;;12.90;;
33287;SDS011;19657;50.452;30.372;2023-12-29T02:36:56;22.70;;;13.40;;
33287;SDS011;19657;50.452;30.372;2023-12-29T02:39:44;24.90;;;13.40;;
33287;SDS011;19657;50.452;30.372;2023-12-29T02:42:30;23.40;;;12.90;;
33287;SDS011;19657;50.452;30.372;2023-12-29T02:45:17;26.60;;;14.40;;
33287;SDS011;19657;50.452;30.372;2023-12-29T02:48:03;27.70;;;15.20;;
33287;SDS011;19657;50.452;30.372;2023-12-29T02:50:50;27.70;;;14.80;;
33287;SDS011;19657;50.452;30.372;2023-12-29T02:53:36;25.80;;;14.30;;
33287;SDS011;19657;50.452;30.372;2023-12-29T02:56:22;26.70;;;14.80;;
33287;SDS011;19657;50.452;30.372;2023-12-29T02:59:07;26.40;;;14.60;;
33287;SDS011;19657;50.452;30.372;2023-12-29T03:01:52;27.80;;;13.80;;
33287;SDS011;19657;50.452;30.372;2023-12-29T03:04:40;25.40;;;14.30;;
33287;SDS011;19657;50.452;30.372;2023-12-29T03:07:25;25.40;;;14.40;;
33287;SDS011;19657;50.452;30.372;2023-12-29T03:10:11;23.10;;;13.20;;
33287;SDS011;19657;50.452;30.372;2023-12-29T03:12:57;27.80;;;13.50;;
33287;SDS011;19657;50.452;30.372;2023-12-29T03:15:42;23.90;;;13.70;;
33287;SDS011;19657;50.452;30.372;2023-12-29T03:18:29;23.80;;;13.70;;
33287;SDS011;19657;50.452;30.372;2023-12-29T03:21:15;21.70;;;13.20;;
33287;SDS011;19657;50.452;30.372;2023-12-29T03:24:01;25.90;;;14.00;;
33287;SDS011;19657;50.452;30.372;2023-12-29T03:26:46;25.40;;;14.70;;
33287;SDS011;19657;50.452;30.372;2023-12-29T03:29:32;24.80;;;13.60;;
33287;SDS011;19657;50.452;30.372;2023-12-29T03:32:18;19.60;;;12.10;;
33287;SDS011;19657;50.452;30.372;2023-12-29T03:35:04;23.90;;;13.00;;
33287;SDS011;19657;50.452;30.372;2023-12-29T03:37:50;19.40;;;12.20;;
33287;SDS011;19657;50.452;30.372;2023-12-29T03:40:36;21.60;;;13.10;;
33287;SDS011;19657;50.452;30.372;2023-12-29T03:43:22;23.00;;;13.10;;
33287;SDS011;19657;50.452;30.372;2023-12-29T03:46:20;20.70;;;12.90;;
33287;SDS011;19657;50.452;30.372;2023-12-29T03:49:07;27.00;;;13.20;;
33287;SDS011;19657;50.452;30.372;2023-12-29T03:51:53;23.70;;;13.10;;
33287;SDS011;19657;50.452;30.372;2023-12-29T03:54:38;21.40;;;12.50;;
33287;SDS011;19657;50.452;30.372;2023-12-29T03:57:24;23.40;;;11.60;;
33287;SDS011;19657;50.452;30.372;2023-12-29T04:00:13;25.00;;;12.50;;
33287;SDS011;19657;50.452;30.372;2023-12-29T04:03:01;19.90;;;12.10;;
33287;SDS011;19657;50.452;30.372;2023-12-29T04:05:47;23.70;;;13.40;;
33287;SDS011;19657;50.452;30.372;2023-12-29T04:08:33;24.40;;;12.30;;
33287;SDS011;19657;50.452;30.372;2023-12-29T04:11:19;23.30;;;13.00;;
33287;SDS011;19657;50.452;30.372;2023-12-29T04:14:05;26.90;;;13.10;;
33287;SDS011;19657;50.452;30.372;2023-12-29T04:16:50;19.70;;;12.70;;
33287;SDS011;19657;50.452;30.372;2023-12-29T04:19:36;20.30;;;12.70;;
33287;SDS011;19657;50.452;30.372;2023-12-29T04:22:22;18.80;;;12.90;;
33287;SDS011;19657;50.452;30.372;2023-12-29T04:25:07;21.60;;;12.60;;
33287;SDS011;19657;50.452;30.372;2023-12-29T04:27:54;25.70;;;13.30;;
33287;SDS011;19657;50.452;30.372;2023-12-29T04:30:39;22.00;;;12.70;;
33287;SDS011;19657;50.452;30.372;2023-12-29T04:33:25;20.50;;;10.80;;
33287;SDS011;19657;50.452;30.372;2023-12-29T04:36:12;17.10;;;10.80;;
33287;SDS011;19657;50.452;30.372;2023-12-29T04:38:57;21.30;;;12.00;;
33287;SDS011;19657;50.452;30.372;2023-12-29T04:41:43;21.60;;;12.70;;
33287;SDS011;19657;50.452;30.372;2023-12-29T04:44:29;20.20;;;11.70;;
33287;SDS011;19657;50.452;30.372;2023-12-29T04:47:15;24.10;;;13.00;;
33287;SDS011;19657;50.452;30.372;2023-12-29T04:50:01;24.00;;;13.90;;
33287;SDS011;19657;50.452;30.372;2023-12-29T04:52:47;24.10;;;13.10;;
33287;SDS011;19657;50.452;30.372;2023-12-29T04:55:33;26.80;;;13.60;;
33287;SDS011;19657;50.452;30.372;2023-12-29T04:58:19;23.50;;;13.40;;
33287;SDS011;19657;50.452;30.372;2023-12-29T05:01:05;22.10;;;13.50;;
33287;SDS011;19657;50.452;30.372;2023-12-29T05:03:51;21.60;;;13.10;;
33287;SDS011;19657;50.452;30.372;2023-12-29T05:06:37;20.70;;;12.50;;
33287;SDS011;19657;50.452;30.372;2023-12-29T05:09:23;24.90;;;13.20;;
33287;SDS011;19657;50.452;30.372;2023-12-29T05:12:08;22.60;;;12.60;;
33287;SDS011;19657;50.452;30.372;2023-12-29T05:14:54;21.90;;;12.50;;
33287;SDS011;19657;50.452;30.372;2023-12-29T05:17:39;24.50;;;12.60;;
33287;SDS011;19657;50.452;30.372;2023-12-29T05:20:25;23.60;;;13.60;;
33287;SDS011;19657;50.452;30.372;2023-12-29T05:23:10;21.60;;;13.90;;
33287;SDS011;19657;50.452;30.372;2023-12-29T05:25:56;21.80;;;13.30;;
33287;SDS011;19657;50.452;30.372;2023-12-29T05:28:42;23.30;;;13.60;;
33287;SDS011;19657;50.452;30.372;2023-12-29T05:31:27;22.90;;;13.10;;
33287;SDS011;19657;50.452;30.372;2023-12-29T05:34:13;23.10;;;13.60;;
33287;SDS011;19657;50.452;30.372;2023-12-29T05:36:59;24.70;;;14.90;;
33287;SDS011;19657;50.452;30.372;2023-12-29T05:39:45;22.40;;;12.80;;
33287;SDS011;19657;50.452;30.372;2023-12-29T05:42:31;22.10;;;13.60;;
33287;SDS011;19657;50.452;30.372;2023-12-29T05:45:16;22.90;;;12.90;;
33287;SDS011;19657;50.452;30.372;2023-12-29T05:48:02;25.50;;;14.60;;
33287;SDS011;19657;50.452;30.372;2023-12-29T05:50:52;23.60;;;14.10;;
33287;SDS011;19657;50.452;30.372;2023-12-29T05:53:41;26.00;;;13.50;;
33287;SDS011;19657;50.452;30.372;2023-12-29T05:56:27;24.50;;;14.90;;
33287;SDS011;19657;50.452;30.372;2023-12-29T05:59:13;25.90;;;15.00;;
33287;SDS011;19657;50.452;30.372;2023-12-29T06:01:59;26.90;;;15.20;;
33287;SDS011;19657;50.452;30.372;2023-12-29T06:04:45;26.40;;;15.00;;
33287;SDS011;19657;50.452;30.372;2023-12-29T06:07:30;26.60;;;14.30;;
33287;SDS011;19657;50.452;30.372;2023-12-29T06:10:16;25.80;;;14.80;;
33287;SDS011;19657;50.452;30.372;2023-12-29T06:13:02;26.90;;;14.50;;
33287;SDS011;19657;50.452;30.372;2023-12-29T06:15:48;24.50;;;15.10;;
33287;SDS011;19657;50.452;30.372;2023-12-29T06:18:34;25.10;;;14.00;;
33287;SDS011;19657;50.452;30.372;2023-12-29T06:21:20;27.00;;;17.50;;
33287;SDS011;19657;50.452;30.372;2023-12-29T06:24:06;30.20;;;17.90;;
33287;SDS011;19657;50.452;30.372;2023-12-29T06:26:51;33.30;;;16.70;;
33287;SDS011;19657;50.452;30.372;2023-12-29T06:29:40;30.60;;;16.50;;
33287;SDS011;19657;50.452;30.372;2023-12-29T06:32:27;25.70;;;15.70;;
33287;SDS011;19657;50.452;30.372;2023-12-29T06:35:12;27.10;;;16.40;;
33287;SDS011;19657;50.452;30.372;2023-12-29T06:37:59;27.70;;;14.80;;
33287;SDS011;19657;50.452;30.372;2023-12-29T06:40:45;23.30;;;14.40;;
33287;SDS011;19657;50.452;30.372;2023-12-29T06:43:30;21.30;;;13.50;;
33287;SDS011;19657;50.452;30.372;2023-12-29T06:46:16;22.30;;;13.30;;
33287;SDS011;19657;50.452;30.372;2023-12-29T06:49:02;23.00;;;12.90;;
33287;SDS011;19657;50.452;30.372;2023-12-29T06:51:49;21.20;;;12.90;;
33287;SDS011;19657;50.452;30.372;2023-12-29T06:54:34;22.10;;;12.40;;
33287;SDS011;19657;50.452;30.372;2023-12-29T06:57:20;22.80;;;13.90;;
33287;SDS011;19657;50.452;30.372;2023-12-29T07:00:05;21.60;;;13.00;;
33287;SDS011;19657;50.452;30.372;2023-12-29T07:02:52;21.60;;;11.70;;
33287;SDS011;19657;50.452;30.372;2023-12-29T07:05:38;21.90;;;12.00;;
33287;SDS011;19657;50.452;30.372;2023-12-29T07:08:23;18.90;;;11.70;;
33287;SDS011;19657;50.452;30.372;2023-12-29T07:11:09;20.70;;;12.50;;
33287;SDS011;19657;50.452;30.372;2023-12-29T07:13:57;19.90;;;12.20;;
33287;SDS011;19657;50.452;30.372;2023-12-29T07:16:43;22.30;;;13.30;;
33287;SDS011;19657;50.452;30.372;2023-12-29T07:19:30;25.10;;;13.30;;
33287;SDS011;19657;50.452;30.372;2023-12-29T07:22:21;19.00;;;12.90;;
33287;SDS011;19657;50.452;30.372;2023-12-29T07:25:07;20.00;;;12.00;;
33287;SDS011;19657;50.452;30.372;2023-12-29T07:27:54;18.30;;;11.30;;
33287;SDS011;19657;50.452;30.372;2023-12-29T07:30:41;18.20;;;11.10;;
33287;SDS011;19657;50.452;30.372;2023-12-29T07:33:26;18.70;;;11.00;;
33287;SDS011;19657;50.452;30.372;2023-12-29T07:36:12;20.10;;;11.70;;
33287;SDS011;19657;50.452;30.372;2023-12-29T07:39:00;15.20;;;10.60;;
33287;SDS011;19657;50.452;30.372;2023-12-29T07:41:46;19.70;;;10.70;;
33287;SDS011;19657;50.452;30.372;2023-12-29T07:44:33;17.10;;;11.30;;
33287;SDS011;19657;50.452;30.372;2023-12-29T07:47:19;20.40;;;12.50;;
33287;SDS011;19657;50.452;30.372;2023-12-29T07:50:05;19.60;;;11.50;;
33287;SDS011;19657;50.452;30.372;2023-12-29T07:52:51;18.50;;;11.50;;
33287;SDS011;19657;50.452;30.372;2023-12-29T07:55:37;18.20;;;11.00;;
33287;SDS011;19657;50.452;30.372;2023-12-29T07:58:24;17.50;;;11.30;;
33287;SDS011;19657;50.452;30.372;2023-12-29T08:01:10;18.10;;;11.20;;
33287;SDS011;19657;50.452;30.372;2023-12-29T08:03:56;17.10;;;10.80;;
33287;SDS011;19657;50.452;30.372;2023-12-29T08:06:42;15.30;;;10.30;;
33287;SDS011;19657;50.452;30.372;2023-12-29T08:09:27;23.70;;;11.60;;
33287;SDS011;19657;50.452;30.372;2023-12-29T08:12:13;18.60;;;10.70;;
33287;SDS011;19657;50.452;30.372;2023-12-29T08:14:59;17.70;;;10.50;;
33287;SDS011;19657;50.452;30.372;2023-12-29T08:17:45;17.80;;;10.30;;
33287;SDS011;19657;50.452;30.372;2023-12-29T08:20:31;18.00;;;10.60;;
33287;SDS011;19657;50.452;30.372;2023-12-29T08:23:17;17.20;;;10.70;;
33287;SDS011;19657;50.452;30.372;2023-12-29T08:26:03;15.40;;;10.70;;
33287;SDS011;19657;50.452;30.372;2023-12-29T08:28:48;17.90;;;10.80;;
33287;SDS011;19657;50.452;30.372;2023-12-29T08:31:34;21.70;;;11.80;;
33287;SDS011;19657;50.452;30.372;2023-12-29T08:34:19;17.90;;;11.20;;
33287;SDS011;19657;50.452;30.372;2023-12-29T08:37:06;21.60;;;11.70;;
33287;SDS011;19657;50.452;30.372;2023-12-29T08:39:52;18.90;;;9.80;;
33287;SDS011;19657;50.452;30.372;2023-12-29T08:42:38;20.90;;;11.60;;
33287;SDS011;19657;50.452;30.372;2023-12-29T08:45:24;17.10;;;11.40;;
33287;SDS011;19657;50.452;30.372;2023-12-29T08:48:10;18.70;;;11.30;;
33287;SDS011;19657;50.452;30.372;2023-12-29T08:50:56;21.90;;;13.40;;
33287;SDS011;19657;50.452;30.372;2023-12-29T08:53:42;20.20;;;11.40;;
33287;SDS011;19657;50.452;30.372;2023-12-29T08:56:28;19.10;;;10.50;;
33287;SDS011;19657;50.452;30.372;2023-12-29T08:59:14;18.20;;;11.60;;
33287;SDS011;19657;50.452;30.372;2023-12-29T09:01:59;17.70;;;11.30;;
33287;SDS011;19657;50.452;30.372;2023-12-29T09:04:46;17.70;;;13.40;;
33287;SDS011;19657;50.452;30.372;2023-12-29T09:07:31;17.40;;;10.90;;
33287;SDS011;19657;50.452;30.372;2023-12-29T09:10:18;16.20;;;10.10;;
33287;SDS011;19657;50.452;30.372;2023-12-29T09:13:04;16.10;;;9.90;;
33287;SDS011;19657;50.452;30.372;2023-12-29T09:15:50;17.50;;;10.00;;
33287;SDS011;19657;50.452;30.372;2023-12-29T09:18:36;19.30;;;11.10;;
33287;SDS011;19657;50.452;30.372;2023-12-29T09:21:22;15.30;;;9.60;;
33287;SDS011;19657;50.452;30.372;2023-12-29T09:24:08;16.00;;;10.40;;
33287;SDS011;19657;50.452;30.372;2023-12-29T09:26:53;19.80;;;10.80;;
33287;SDS011;19657;50.452;30.372;2023-12-29T09:29:39;17.30;;;9.90;;
33287;SDS011;19657;50.452;30.372;2023-12-29T09:32:25;15.00;;;9.20;;
33287;SDS011;19657;50.452;30.372;2023-12-29T09:35:14;16.20;;;10.50;;
33287;SDS011;19657;50.452;30.372;2023-12-29T09:38:05;16.50;;;9.90;;
33287;SDS011;19657;50.452;30.372;2023-12-29T09:40:50;18.30;;;9.80;;
33287;SDS011;19657;50.452;30.372;2023-12-29T09:43:39;17.60;;;10.40;;
33287;SDS011;19657;50.452;30.372;2023-12-29T09:46:25;17.20;;;10.40;;
33287;SDS011;19657;50.452;30.372;2023-12-29T09:49:17;20.00;;;11.60;;
33287;SDS011;19657;50.452;30.372;2023-12-29T09:52:05;16.80;;;10.30;;
33287;SDS011;19657;50.452;30.372;2023-12-29T09:54:54;17.90;;;11.50;;
33287;SDS011;19657;50.452;30.372;2023-12-29T09:57:40;20.80;;;11.60;;
33287;SDS011;19657;50.452;30.372;2023-12-29T10:00:27;17.70;;;10.30;;
33287;SDS011;19657;50.452;30.372;2023-12-29T10:03:14;21.00;;;11.50;;
33287;SDS011;19657;50.452;30.372;2023-12-29T10:06:00;18.10;;;11.50;;
33287;SDS011;19657;50.452;30.372;2023-12-29T10:08:53;18.50;;;11.00;;
33287;SDS011;19657;50.452;30.372;2023-12-29T10:11:42;21.10;;;12.00;;
33287;SDS011;19657;50.452;30.372;2023-12-29T10:20:47;21.80;;;11.30;;
33287;SDS011;19657;50.452;30.372;2023-12-29T10:23:48;21.20;;;11.20;;
33287;SDS011;19657;50.452;30.372;2023-12-29T10:26:43;20.70;;;11.90;;
33287;SDS011;19657;50.452;30.372;2023-12-29T10:29:29;19.10;;;12.80;;
33287;SDS011;19657;50.452;30.372;2023-12-29T10:32:15;20.80;;;13.30;;
33287;SDS011;19657;50.452;30.372;2023-12-29T10:35:07;26.50;;;14.60;;
33287;SDS011;19657;50.452;30.372;2023-12-29T10:37:54;23.80;;;14.40;;
33287;SDS011;19657;50.452;30.372;2023-12-29T10:40:54;19.30;;;13.20;;
33287;SDS011;19657;50.452;30.372;2023-12-29T10:43:42;23.80;;;14.20;;
33287;SDS011;19657;50.452;30.372;2023-12-29T10:46:30;24.70;;;14.90;;
33287;SDS011;19657;50.452;30.372;2023-12-29T10:49:15;23.30;;;14.00;;
33287;SDS011;19657;50.452;30.372;2023-12-29T10:52:10;26.20;;;14.50;;
33287;SDS011;19657;50.452;30.372;2023-12-29T10:55:06;23.50;;;14.00;;
33287;SDS011;19657;50.452;30.372;2023-12-29T10:57:52;22.80;;;12.70;;
33287;SDS011;19657;50.452;30.372;2023-12-29T11:00:46;17.40;;;11.40;;
33287;SDS011;19657;50.452;30.372;2023-12-29T11:03:32;18.40;;;11.20;;
33287;SDS011;19657;50.452;30.372;2023-12-29T11:06:18;17.50;;;11.50;;
33287;SDS011;19657;50.452;30.372;2023-12-29T11:09:03;18.00;;;10.60;;
33287;SDS011;19657;50.452;30.372;2023-12-29T11:11:50;20.50;;;11.10;;
33287;SDS011;19657;50.452;30.372;2023-12-29T11:14:37;19.00;;;11.80;;
33287;SDS011;19657;50.452;30.372;2023-12-29T11:17:25;21.60;;;12.30;;
33287;SDS011;19657;50.452;30.372;2023-12-29T11:20:12;17.30;;;11.30;;
33287;SDS011;19657;50.452;30.372;2023-12-29T11:23:00;14.80;;;10.10;;
33287;SDS011;19657;50.452;30.372;2023-12-29T11:25:47;19.40;;;11.10;;
33287;SDS011;19657;50.452;30.372;2023-12-29T11:28:34;17.10;;;10.90;;
33287;SDS011;19657;50.452;30.372;2023-12-29T11:31:21;19.00;;;10.80;;
33287;SDS011;19657;50.452;30.372;2023-12-29T11:34:09;20.00;;;11.70;;
33287;SDS011;19657;50.452;30.372;2023-12-29T11:37:06;19.20;;;11.90;;
33287;SDS011;19657;50.452;30.372;2023-12-29T11:40:09;21.00;;;11.70;;
33287;SDS011;19657;50.452;30.372;2023-12-29T11:43:19;20.20;;;11.90;;
33287;SDS011;19657;50.452;30.372;2023-12-29T11:46:05;18.90;;;11.30;;
33287;SDS011;19657;50.452;30.372;2023-12-29T11:48:54;21.20;;;12.20;;
33287;SDS011;19657;50.452;30.372;2023-12-29T11:51:42;18.80;;;12.20;;
33287;SDS011;19657;50.452;30.372;2023-12-29T11:54:34;18.80;;;11.80;;
33287;SDS011;19657;50.452;30.372;2023-12-29T11:57:30;26.70;;;12.40;;
33287;SDS011;19657;50.452;30.372;2023-12-29T12:00:20;21.10;;;13.10;;
33287;SDS011;19657;50.452;30.372;2023-12-29T12:03:24;21.20;;;13.00;;
33287;SDS011;19657;50.452;30.372;2023-12-29T12:06:12;24.60;;;13.10;;
33287;SDS011;19657;50.452;30.372;2023-12-29T12:09:26;21.90;;;13.60;;
33287;SDS011;19657;50.452;30.372;2023-12-29T12:12:12;20.10;;;12.70;;
33287;SDS011;19657;50.452;30.372;2023-12-29T12:14:58;21.80;;;12.80;;
33287;SDS011;19657;50.452;30.372;2023-12-29T12:17:43;19.90;;;12.20;;
33287;SDS011;19657;50.452;30.372;2023-12-29T12:20:32;20.20;;;12.40;;
33287;SDS011;19657;50.452;30.372;2023-12-29T12:23:18;21.50;;;11.50;;
33287;SDS011;19657;50.452;30.372;2023-12-29T12:26:05;19.40;;;12.30;;
33287;SDS011;19657;50.452;30.372;2023-12-29T12:28:52;17.50;;;11.40;;
33287;SDS011;19657;50.452;30.372;2023-12-29T12:31:51;18.30;;;12.20;;
33287;SDS011;19657;50.452;30.372;2023-12-29T12:34:40;19.70;;;11.40;;
33287;SDS011;19657;50.452;30.372;2023-12-29T12:37:28;17.20;;;11.30;;
33287;SDS011;19657;50.452;30.372;2023-12-29T12:40:24;17.80;;;11.40;;
33287;SDS011;19657;50.452;30.372;2023-12-29T12:43:16;18.90;;;10.90;;
33287;SDS011;19657;50.452;30.372;2023-12-29T12:46:02;19.70;;;11.30;;
33287;SDS011;19657;50.452;30.372;2023-12-29T12:48:50;16.60;;;10.10;;
33287;SDS011;19657;50.452;30.372;2023-12-29T12:51:37;17.60;;;11.00;;
33287;SDS011;19657;50.452;30.372;2023-12-29T12:54:23;17.30;;;10.80;;
33287;SDS011;19657;50.452;30.372;2023-12-29T12:57:08;16.90;;;11.50;;
33287;SDS011;19657;50.452;30.372;2023-12-29T12:59:54;17.30;;;10.90;;
33287;SDS011;19657;50.452;30.372;2023-12-29T13:02:44;14.80;;;10.60;;
33287;SDS011;19657;50.452;30.372;2023-12-29T13:05:32;18.00;;;10.50;;
33287;SDS011;19657;50.452;30.372;2023-12-29T13:08:18;21.40;;;11.20;;
33287;SDS011;19657;50.452;30.372;2023-12-29T13:11:19;16.30;;;10.30;;
33287;SDS011;19657;50.452;30.372;2023-12-29T13:14:07;19.70;;;11.00;;
33287;SDS011;19657;50.452;30.372;2023-12-29T13:16:52;20.50;;;12.30;;
33287;SDS011;19657;50.452;30.372;2023-12-29T13:19:38;18.80;;;11.30;;
33287;SDS011;19657;50.452;30.372;2023-12-29T13:22:25;18.00;;;12.10;;
33287;SDS011;19657;50.452;30.372;2023-12-29T13:25:17;16.70;;;11.00;;
33287;SDS011;19657;50.452;30.372;2023-12-29T13:28:06;21.50;;;12.30;;
33287;SDS011;19657;50.452;30.372;2023-12-29T13:30:53;23.30;;;12.90;;
33287;SDS011;19657;50.452;30.372;2023-12-29T13:39:41;23.80;;;14.00;;
33287;SDS011;19657;50.452;30.372;2023-12-29T13:45:18;22.60;;;12.80;;
33287;SDS011;19657;50.452;30.372;2023-12-29T13:48:05;22.20;;;13.10;;
33287;SDS011;19657;50.452;30.372;2023-12-29T13:50:53;21.90;;;14.60;;
33287;SDS011;19657;50.452;30.372;2023-12-29T13:53:40;24.10;;;14.90;;
33287;SDS011;19657;50.452;30.372;2023-12-29T13:56:26;20.70;;;14.10;;
33287;SDS011;19657;50.452;30.372;2023-12-29T13:59:11;25.50;;;14.50;;
33287;SDS011;19657;50.452;30.372;2023-12-29T14:01:58;24.80;;;13.90;;
33287;SDS011;19657;50.452;30.372;2023-12-29T14:04:49;21.60;;;13.70;;
33287;SDS011;19657;50.452;30.372;2023-12-29T14:07:35;22.60;;;13.90;;
33287;SDS011;19657;50.452;30.372;2023-12-29T14:10:21;24.60;;;14.40;;
33287;SDS011;19657;50.452;30.372;2023-12-29T14:15:56;23.00;;;14.40;;
33287;SDS011;19657;50.452;30.372;2023-12-29T14:21:32;26.90;;;15.70;;
33287;SDS011;19657;50.452;30.372;2023-12-29T14:24:19;29.90;;;15.80;;
33287;SDS011;19657;50.452;30.372;2023-12-29T14:27:06;28.40;;;15.90;;
33287;SDS011;19657;50.452;30.372;2023-12-29T14:29:54;29.40;;;16.70;;
33287;SDS011;19657;50.452;30.372;2023-12-29T14:32:39;28.00;;;17.70;;
33287;SDS011;19657;50.452;30.372;2023-12-29T14:35:25;29.00;;;18.90;;
33287;SDS011;19657;50.452;30.372;2023-12-29T14:38:10;33.90;;;18.90;;
33287;SDS011;19657;50.452;30.372;2023-12-29T14:41:02;28.50;;;18.10;;
33287;SDS011;19657;50.452;30.372;2023-12-29T14:43:49;29.70;;;19.30;;
33287;SDS011;19657;50.452;30.372;2023-12-29T14:46:35;33.50;;;19.60;;
33287;SDS011;19657;50.452;30.372;2023-12-29T14:49:22;28.90;;;17.50;;
33287;SDS011;19657;50.452;30.372;2023-12-29T14:52:07;35.10;;;20.00;;
33287;SDS011;19657;50.452;30.372;2023-12-29T14:54:52;30.30;;;19.00;;
33287;SDS011;19657;50.452;30.372;2023-12-29T14:57:38;28.60;;;18.60;;
33287;SDS011;19657;50.452;30.372;2023-12-29T15:00:25;30.90;;;17.50;;
33287;SDS011;19657;50.452;30.372;2023-12-29T15:03:11;29.00;;;18.00;;
33287;SDS011;19657;50.452;30.372;2023-12-29T15:05:57;29.30;;;16.60;;
33287;SDS011;19657;50.452;30.372;2023-12-29T15:08:44;28.90;;;17.90;;
33287;SDS011;19657;50.452;30.372;2023-12-29T15:11:30;31.20;;;18.40;;
33287;SDS011;19657;50.452;30.372;2023-12-29T15:14:16;32.50;;;18.60;;
33287;SDS011;19657;50.452;30.372;2023-12-29T15:17:01;30.20;;;19.80;;
33287;SDS011;19657;50.452;30.372;2023-12-29T15:19:47;36.20;;;20.20;;
33287;SDS011;19657;50.452;30.372;2023-12-29T15:22:33;30.50;;;18.70;;
33287;SDS011;19657;50.452;30.372;2023-12-29T15:25:19;31.70;;;19.10;;
33287;SDS011;19657;50.452;30.372;2023-12-29T15:28:05;35.80;;;22.30;;
33287;SDS011;19657;50.452;30.372;2023-12-29T15:30:52;33.20;;;20.70;;
33287;SDS011;19657;50.452;30.372;2023-12-29T15:33:38;35.80;;;21.40;;
33287;SDS011;19657;50.452;30.372;2023-12-29T15:36:23;34.20;;;20.40;;
33287;SDS011;19657;50.452;30.372;2023-12-29T15:39:09;37.00;;;21.60;;
33287;SDS011;19657;50.452;30.372;2023-12-29T15:41:54;36.70;;;21.80;;
33287;SDS011;19657;50.452;30.372;2023-12-29T15:44:40;42.30;;;21.70;;
33287;SDS011;19657;50.452;30.372;2023-12-29T15:47:26;36.60;;;21.90;;
33287;SDS011;19657;50.452;30.372;2023-12-29T15:50:11;36.40;;;21.90;;
33287;SDS011;19657;50.452;30.372;2023-12-29T15:52:57;37.00;;;21.90;;
33287;SDS011;19657;50.452;30.372;2023-12-29T15:55:43;30.70;;;20.00;;
33287;SDS011;19657;50.452;30.372;2023-12-29T15:58:29;30.30;;;18.60;;
33287;SDS011;19657;50.452;30.372;2023-12-29T16:01:22;28.80;;;17.60;;
33287;SDS011;19657;50.452;30.372;2023-12-29T16:04:10;32.70;;;20.10;;
33287;SDS011;19657;50.452;30.372;2023-12-29T16:06:56;31.40;;;18.80;;
33287;SDS011;19657;50.452;30.372;2023-12-29T16:09:42;37.90;;;19.80;;
33287;SDS011;19657;50.452;30.372;2023-12-29T16:12:28;28.50;;;18.20;;
33287;SDS011;19657;50.452;30.372;2023-12-29T16:15:14;29.70;;;17.90;;
33287;SDS011;19657;50.452;30.372;2023-12-29T16:17:59;32.90;;;19.80;;
33287;SDS011;19657;50.452;30.372;2023-12-29T16:20:45;35.80;;;19.30;;
33287;SDS011;19657;50.452;30.372;2023-12-29T16:23:32;31.70;;;19.70;;
33287;SDS011;19657;50.452;30.372;2023-12-29T16:26:17;28.20;;;17.60;;
33287;SDS011;19657;50.452;30.372;2023-12-29T16:29:12;29.00;;;17.10;;
33287;SDS011;19657;50.452;30.372;2023-12-29T16:31:57;26.70;;;16.20;;